Time;durP1;ratioP1;P1;durP2;ratioP2;P2;SDS_P1;SDS_P2;PMS_P1;PMS_P2;Temp;Humidity;BMP_temperature;BMP_pressure;BME280_temperature;BME280_humidity;BME280_pressure;Samples;Min_cycle;Max_cycle;Signal;HPM_P1;HPM_P2
2022/08/09 00:00:14;;;;;;;4.45;4.20;;;;;;;15.82;100.00;102620.81;5257202;28;20157;-81
2022/08/09 00:02:45;;;;;;;4.78;4.05;;;;;;;15.63;100.00;102587.53;5257721;28;20024;-82
2022/08/09 00:05:20;;;;;;;5.38;5.07;;;;;;;15.58;100.00;102583.94;5258128;28;20032;-80
2022/08/09 00:07:50;;;;;;;4.25;3.85;;;;;;;15.67;100.00;102604.22;5240824;28;20479;-81
2022/08/09 00:10:21;;;;;;;5.00;4.60;;;;;;;15.67;100.00;102607.75;5259456;28;20074;-81
2022/08/09 00:12:51;;;;;;;4.20;4.00;;;;;;;15.71;100.00;102613.53;5259049;28;20099;-80
2022/08/09 00:15:21;;;;;;;4.65;4.43;;;;;;;15.67;100.00;102609.66;5258623;28;20021;-81
2022/08/09 00:17:52;;;;;;;3.80;3.55;;;;;;;15.70;100.00;102626.34;5240855;28;20542;-81
2022/08/09 00:20:22;;;;;;;5.15;4.95;;;;;;;15.48;100.00;102590.00;5241587;28;20107;-81
2022/08/09 00:22:53;;;;;;;4.78;4.57;;;;;;;15.61;100.00;102624.25;5258569;28;20028;-81
2022/08/09 00:25:23;;;;;;;4.97;4.72;;;;;;;15.59;100.00;102627.25;5240042;28;20021;-80
2022/08/09 00:27:53;;;;;;;5.53;5.10;;;;;;;15.54;100.00;102614.34;5238128;28;20012;-80
2022/08/09 00:30:24;;;;;;;5.40;5.10;;;;;;;15.52;100.00;102612.94;5255194;28;20034;-81
2022/08/09 00:32:54;;;;;;;5.60;5.20;;;;;;;15.49;100.00;102616.97;5254416;28;20028;-81
2022/08/09 00:35:25;;;;;;;5.72;5.32;;;;;;;15.48;100.00;102612.59;5254660;28;20031;-80
2022/08/09 00:37:55;;;;;;;5.25;4.90;;;;;;;15.31;100.00;102581.78;5236687;28;20084;-80
2022/08/09 00:40:25;;;;;;;7.70;5.00;;;;;;;15.29;100.00;102592.13;5254434;28;20024;-80
2022/08/09 00:42:56;;;;;;;5.72;5.22;;;;;;;15.45;100.00;102610.38;5253946;28;20371;-80
2022/08/09 00:45:26;;;;;;;9.73;4.47;;;;;;;15.24;100.00;102575.72;5252671;28;20063;-79
2022/08/09 00:47:57;;;;;;;4.95;4.55;;;;;;;15.46;100.00;102616.63;5235630;28;20020;-80
2022/08/09 00:50:27;;;;;;;7.45;4.93;;;;;;;15.47;100.00;102616.41;5235395;28;20035;-81
2022/08/09 00:52:58;;;;;;;6.88;5.47;;;;;;;15.44;100.00;102613.34;5251828;28;20021;-80
2022/08/09 00:55:28;;;;;;;5.72;5.28;;;;;;;15.50;100.00;102621.34;5251298;28;20020;-80
2022/08/09 00:57:59;;;;;;;5.75;5.43;;;;;;;15.50;100.00;102617.81;5251452;28;20052;-80
2022/08/09 01:00:29;;;;;;;5.97;4.95;;;;;;;15.47;100.00;102616.41;5250228;28;20465;-80
2022/08/09 01:03:06;;;;;;;5.72;5.32;;;;;;;15.45;100.00;102610.38;5253694;28;20021;-82
2022/08/09 01:05:50;;;;;;;6.05;4.40;;;;;;;15.43;100.00;102617.13;5257468;28;20029;-82
2022/08/09 01:08:43;;;;;;;9.27;5.97;;;;;;;15.44;100.00;102619.59;5259011;28;20032;-81
2022/08/09 01:11:22;;;;;;;5.18;4.78;;;;;;;15.44;100.00;102619.59;5258215;28;20025;-81
2022/08/09 01:14:03;;;;;;;7.03;5.45;;;;;;;15.47;100.00;102612.84;5257826;28;20059;-81
2022/08/09 01:16:38;;;;;;;4.72;4.53;;;;;;;15.46;100.00;102628.34;5239777;28;20016;-81
2022/08/09 01:19:37;;;;;;;13.95;6.25;;;;;;;15.34;100.00;102592.19;5258559;28;20071;-82
2022/08/09 01:22:49;;;;;;;6.05;5.07;;;;;;;15.50;100.00;102613.19;5239813;28;20054;-81
2022/08/09 01:25:29;;;;;;;5.85;5.32;;;;;;;15.48;100.00;102615.31;5256641;28;20487;-80
2022/08/09 01:28:00;;;;;;;6.18;5.70;;;;;;;15.32;100.00;102588.06;5257852;28;20032;-81
2022/08/09 01:30:33;;;;;;;7.07;6.45;;;;;;;15.32;100.00;102588.88;5258111;28;20024;-81
2022/08/09 01:33:07;;;;;;;5.95;5.50;;;;;;;15.50;100.00;102612.34;5255491;28;20050;-81
2022/08/09 01:35:45;;;;;;;7.15;4.53;;;;;;;15.50;100.00;102612.34;5253197;28;20032;-80
2022/08/09 01:38:21;;;;;;;4.80;4.15;;;;;;;15.41;100.00;102614.66;5254137;28;20024;-80
2022/08/09 01:41:03;;;;;;;6.68;5.30;;;;;;;15.36;100.00;102600.13;5253647;28;20029;-79
2022/08/09 01:43:36;;;;;;;6.10;5.80;;;;;;;15.36;100.00;102589.22;5253501;28;20036;-80
2022/08/09 01:46:10;;;;;;;6.20;5.20;;;;;;;15.40;100.00;102598.56;5254247;28;20047;-80
2022/08/09 01:48:42;;;;;;;6.10;5.80;;;;;;;15.42;100.00;102601.88;5254489;28;20033;-80
2022/08/09 01:51:15;;;;;;;6.07;5.50;;;;;;;15.43;100.00;102612.50;5254057;28;20406;-81
2022/08/09 01:53:47;;;;;;;5.82;5.53;;;;;;;15.41;100.00;102608.38;5254887;28;20355;-80
2022/08/09 01:56:19;;;;;;;5.95;5.45;;;;;;;15.45;100.00;102612.25;5236952;28;20044;-81
2022/08/09 01:58:51;;;;;;;5.45;5.05;;;;;;;15.36;100.00;102600.94;5255094;28;20566;-81
2022/08/09 02:01:24;;;;;;;5.97;5.55;;;;;;;15.34;100.00;102596.81;5254258;28;20025;-81
2022/08/09 02:03:56;;;;;;;6.30;5.85;;;;;;;15.34;100.00;102605.81;5255280;28;20044;-81
2022/08/09 02:09:27;;;;;;;5.43;5.13;;;;;;;15.31;100.00;102611.75;5225363;28;20058;-81
2022/08/09 02:11:59;;;;;;;5.43;5.07;;;;;;;15.29;100.00;102622.06;5237693;28;20035;-80
2022/08/09 02:14:30;;;;;;;7.05;5.07;;;;;;;15.26;100.00;102613.56;5237286;28;20027;-81
2022/08/09 02:17:01;;;;;;;3.95;3.65;;;;;;;15.18;100.00;102609.34;5255755;28;20025;-81
2022/08/09 02:19:32;;;;;;;9.73;5.50;;;;;;;15.14;100.00;102600.84;5256946;28;20086;-80
2022/08/09 02:22:12;;;;;;;5.00;4.63;;;;;;;15.15;100.00;102598.94;5257118;28;20028;-82
2022/08/09 02:24:46;;;;;;;5.47;5.18;;;;;;;15.11;100.00;102597.78;5240266;28;20111;-81
2022/08/09 02:27:19;;;;;;;5.82;5.30;;;;;;;15.04;100.00;102588.91;5258428;28;20051;-81
2022/08/09 02:29:53;;;;;;;4.80;4.30;;;;;;;15.14;100.00;102603.56;5258102;28;20020;-81
2022/08/09 02:32:27;;;;;;;4.78;4.57;;;;;;;15.09;100.00;102595.28;5258750;28;20134;-80
2022/08/09 02:35:04;;;;;;;5.72;5.32;;;;;;;15.06;100.00;102600.38;5258875;28;20493;-80
2022/08/09 02:37:37;;;;;;;4.55;4.35;;;;;;;14.80;100.00;102564.53;5259178;28;20028;-80
2022/08/09 02:40:14;;;;;;;5.53;5.22;;;;;;;14.88;100.00;102576.94;5259612;28;20048;-82
2022/08/09 02:42:48;;;;;;;5.80;5.32;;;;;;;15.10;100.00;102612.44;5260754;28;20028;-81
2022/08/09 02:45:31;;;;;;;6.97;5.60;;;;;;;14.91;100.00;102584.63;5259236;28;20039;-81
2022/08/09 02:48:15;;;;;;;5.80;5.40;;;;;;;15.06;100.00;102605.84;5242012;28;20017;-83
2022/08/09 02:50:53;;;;;;;6.15;5.75;;;;;;;15.04;100.00;102603.34;5273424;22;20039;-64
2022/08/09 02:53:30;;;;;;;5.20;4.80;;;;;;;14.88;100.00;102581.56;5252564;28;20499;-62
2022/08/09 02:56:02;;;;;;;6.35;5.85;;;;;;;15.01;100.00;102598.44;5263589;28;20028;-62
2022/08/09 02:58:33;;;;;;;5.18;4.78;;;;;;;14.99;100.00;102594.28;5263431;28;20039;-62
2022/08/09 03:01:08;;;;;;;5.78;5.40;;;;;;;14.94;100.00;102608.63;5263704;28;20051;-62
2022/08/09 03:03:40;;;;;;;12.85;7.30;;;;;;;14.90;100.00;102603.91;5262435;28;20016;-62
2022/08/09 03:06:13;;;;;;;6.95;5.97;;;;;;;14.88;100.00;102606.03;5263458;28;20020;-62
2022/08/09 03:08:45;;;;;;;6.35;5.85;;;;;;;14.88;100.00;102609.59;5263296;28;20024;-62
2022/08/09 03:11:19;;;;;;;6.38;5.93;;;;;;;14.86;100.00;102609.81;5263383;28;20433;-62
2022/08/09 03:13:50;;;;;;;5.05;4.70;;;;;;;14.84;100.00;102606.50;5263589;28;20397;-63
2022/08/09 03:16:22;;;;;;;6.00;5.60;;;;;;;14.42;100.00;102550.75;5263451;28;20043;-63
2022/08/09 03:18:54;;;;;;;6.93;6.45;;;;;;;14.75;100.00;102607.97;5262808;28;20142;-65
2022/08/09 03:21:26;;;;;;;5.93;5.53;;;;;;;14.70;100.00;102607.88;5263321;28;20020;-63
2022/08/09 03:23:56;;;;;;;6.18;5.78;;;;;;;14.72;100.00;102611.19;5262410;28;20027;-63
2022/08/09 03:26:27;;;;;;;7.25;6.63;;;;;;;14.65;100.00;102596.91;5263068;28;20254;-63
2022/08/09 03:28:58;;;;;;;6.05;5.63;;;;;;;14.70;100.00;102612.50;5262911;28;20369;-63
2022/08/09 03:31:29;;;;;;;4.28;4.05;;;;;;;14.64;100.00;102603.41;5262804;28;20035;-63
2022/08/09 03:34:01;;;;;;;8.38;5.72;;;;;;;14.64;100.00;102611.56;5262503;28;20020;-63
2022/08/09 03:36:32;;;;;;;6.47;6.07;;;;;;;14.50;100.00;102596.56;5262858;28;20035;-63
2022/08/09 03:39:03;;;;;;;6.00;5.50;;;;;;;14.45;100.00;102588.28;5262888;28;20032;-63
2022/08/09 03:41:34;;;;;;;7.00;6.30;;;;;;;14.56;100.00;102620.06;5262490;28;20024;-63
2022/08/09 03:44:04;;;;;;;5.25;4.82;;;;;;;14.53;100.00;102618.66;5264081;28;20024;-63
2022/08/09 03:46:35;;;;;;;6.75;5.10;;;;;;;14.49;100.00;102612.03;5266822;28;20185;-63
2022/08/09 03:49:07;;;;;;;8.27;6.68;;;;;;;14.48;100.00;102615.00;5248068;28;20027;-62
2022/08/09 03:51:40;;;;;;;7.18;6.47;;;;;;;14.48;100.00;102617.72;5266290;28;20043;-62
2022/08/09 03:54:13;;;;;;;8.52;7.25;;;;;;;14.45;100.00;102621.75;5265823;28;20233;-62
2022/08/09 03:56:44;;;;;;;6.80;6.30;;;;;;;14.44;100.00;102616.53;5266312;28;20035;-62
2022/08/09 03:59:14;;;;;;;7.28;6.55;;;;;;;14.39;100.00;102621.84;5266276;28;20032;-62
2022/08/09 04:01:46;;;;;;;6.93;6.43;;;;;;;14.37;100.00;102615.84;5266311;28;20035;-62
2022/08/09 04:04:17;;;;;;;6.13;5.53;;;;;;;14.34;100.00;102630.72;5247558;28;20391;-61
2022/08/09 04:06:48;;;;;;;6.93;6.30;;;;;;;14.34;100.00;102624.47;5266256;28;20032;-61
2022/08/09 04:09:18;;;;;;;6.85;6.45;;;;;;;14.31;100.00;102620.31;5266435;28;20051;-61
2022/08/09 04:11:49;;;;;;;5.97;5.68;;;;;;;14.29;100.00;102618.91;5266646;28;20369;-61
2022/08/09 04:14:21;;;;;;;7.13;6.43;;;;;;;14.22;100.00;102612.75;5265828;28;20058;-61
2022/08/09 04:16:52;;;;;;;6.88;6.25;;;;;;;14.30;100.00;102624.09;5267001;28;20016;-63
2022/08/09 04:19:22;;;;;;;6.72;6.32;;;;;;;14.28;100.00;102633.56;5266141;28;20035;-63
2022/08/09 04:21:53;;;;;;;7.97;6.68;;;;;;;14.28;100.00;102628.13;5266179;28;20016;-63
2022/08/09 04:24:26;;;;;;;9.32;7.20;;;;;;;14.21;100.00;102609.22;5246894;28;20020;-61
2022/08/09 04:26:56;;;;;;;7.25;6.72;;;;;;;14.26;100.00;102616.66;5247594;28;20065;-63
2022/08/09 04:29:26;;;;;;;6.68;5.97;;;;;;;14.25;100.00;102623.16;5263505;28;20032;-63
2022/08/09 04:31:57;;;;;;;5.75;5.35;;;;;;;14.26;100.00;102630.25;5265758;28;20529;-63
2022/08/09 04:34:28;;;;;;;5.88;5.47;;;;;;;14.28;100.00;102628.13;5265195;28;20038;-63
2022/08/09 04:37:00;;;;;;;8.18;6.78;;;;;;;14.30;100.00;102623.28;5266037;28;20024;-63
2022/08/09 04:39:30;;;;;;;6.72;6.22;;;;;;;14.33;100.00;102628.25;5265907;28;20024;-62
2022/08/09 04:42:01;;;;;;;9.32;8.38;;;;;;;14.30;100.00;102629.53;5265804;28;20038;-63
2022/08/09 04:44:32;;;;;;;9.90;6.70;;;;;;;14.31;100.00;102624.94;5265684;28;20542;-64
2022/08/09 04:47:02;;;;;;;10.93;8.70;;;;;;;14.31;100.00;102627.66;5247710;28;20058;-61
2022/08/09 04:49:36;;;;;;;7.47;7.05;;;;;;;14.34;100.00;102636.16;5247770;28;20077;-61
2022/08/09 04:52:06;;;;;;;6.97;6.38;;;;;;;14.33;100.00;102641.81;5265447;28;20028;-62
2022/08/09 04:54:37;;;;;;;6.68;6.07;;;;;;;14.37;100.00;102648.44;5246800;28;20103;-61
2022/08/09 04:57:07;;;;;;;8.98;6.78;;;;;;;14.16;100.00;102609.91;5265750;28;20389;-62
2022/08/09 04:59:38;;;;;;;8.18;7.47;;;;;;;14.39;100.00;102640.88;5247096;28;20016;-62
2022/08/09 05:02:08;;;;;;;7.40;6.90;;;;;;;14.43;100.00;102639.38;5247212;28;20535;-61
2022/08/09 05:04:39;;;;;;;7.35;6.85;;;;;;;14.45;100.00;102645.38;5264912;28;20120;-62
2022/08/09 05:07:09;;;;;;;7.20;6.70;;;;;;;14.51;100.00;102658.03;5265095;28;20028;-64
2022/08/09 05:09:40;;;;;;;7.20;6.60;;;;;;;14.55;100.00;102648.31;5265298;28;20107;-63
2022/08/09 05:12:10;;;;;;;6.25;5.85;;;;;;;14.57;100.00;102654.34;5247171;28;20016;-63
2022/08/09 05:14:40;;;;;;;8.25;7.75;;;;;;;14.60;100.00;102648.44;5264860;28;20468;-62
2022/08/09 05:17:11;;;;;;;8.15;7.45;;;;;;;14.66;100.00;102647.50;5265491;28;20024;-63
2022/08/09 05:19:41;;;;;;;7.05;6.45;;;;;;;14.60;100.00;102643.00;5265001;28;20091;-63
2022/08/09 05:22:12;;;;;;;7.18;6.63;;;;;;;14.73;100.00;102648.16;5266769;28;20024;-62
2022/08/09 05:24:43;;;;;;;7.97;7.05;;;;;;;14.73;100.00;102640.00;5242536;28;20035;-62
2022/08/09 05:27:13;;;;;;;6.55;6.22;;;;;;;14.78;100.00;102642.84;5242501;28;20316;-63
2022/08/09 05:29:44;;;;;;;17.58;6.80;;;;;;;14.84;100.00;102644.59;5243562;28;20098;-62
2022/08/09 05:32:14;;;;;;;7.15;6.55;;;;;;;14.47;100.00;102580.72;5243814;28;20532;-62
2022/08/09 05:34:44;;;;;;;7.82;6.57;;;;;;;14.94;100.00;102652.16;5243249;28;20069;-62
2022/08/09 05:37:15;;;;;;;8.50;7.75;;;;;;;14.98;100.00;102650.59;5244171;28;20020;-62
2022/08/09 05:39:45;;;;;;;9.30;8.38;;;;;;;15.00;100.00;102640.31;5225962;28;20044;-62
2022/08/09 05:42:16;;;;;;;8.35;7.63;;;;;;;15.08;100.00;102656.22;5243527;28;20020;-62
2022/08/09 05:44:46;;;;;;;9.57;8.75;;;;;;;15.12;100.00;102654.66;5225987;28;20113;-62
2022/08/09 05:47:18;;;;;;;13.38;8.23;;;;;;;15.09;100.00;102640.72;5261079;22;20032;-80
2022/08/09 05:49:51;;;;;;;7.10;6.50;;;;;;;14.97;100.00;102604.59;5254346;28;20064;-80
2022/08/09 05:52:22;;;;;;;7.88;7.18;;;;;;;15.35;100.00;102658.34;5247131;28;20020;-80
2022/08/09 05:54:52;;;;;;;16.45;7.63;;;;;;;15.40;100.00;102655.72;5228987;28;20072;-78
2022/08/09 05:57:23;;;;;;;17.17;8.38;;;;;;;15.49;100.00;102657.81;5246862;28;20063;-79
2022/08/09 05:59:53;;;;;;;7.38;6.78;;;;;;;15.31;100.00;102614.47;5248552;28;20017;-79
2022/08/09 06:02:23;;;;;;;8.98;7.60;;;;;;;15.33;100.00;102619.66;5249157;28;20576;-79
2022/08/09 06:04:54;;;;;;;8.15;7.63;;;;;;;15.65;100.00;102658.09;5248477;28;20021;-79
2022/08/09 06:07:24;;;;;;;9.40;6.90;;;;;;;15.70;100.00;102650.03;5249497;28;20029;-79
2022/08/09 06:09:55;;;;;;;8.68;7.88;;;;;;;15.76;100.00;102649.03;5260216;22;20115;-61
2022/08/09 06:12:25;;;;;;;7.30;6.63;;;;;;;15.93;100.00;102662.66;5257847;28;20028;-63
2022/08/09 06:14:56;;;;;;;6.13;5.80;;;;;;;16.01;100.00;102673.16;5265633;28;20077;-62
2022/08/09 06:17:27;;;;;;;9.20;7.07;;;;;;;16.11;100.00;102684.22;5247599;28;20187;-62
2022/08/09 06:19:57;;;;;;;10.93;7.05;;;;;;;16.19;100.00;102686.50;5265762;28;20055;-61
2022/08/09 06:22:27;;;;;;;7.60;6.97;;;;;;;16.27;100.00;102677.09;5266018;28;20082;-62
2022/08/09 06:24:58;;;;;;;7.25;6.70;;;;;;;16.38;100.00;102695.25;5265474;28;20050;-61
2022/08/09 06:27:28;;;;;;;7.63;7.03;;;;;;;16.41;100.00;102689.31;5265629;28;20341;-62
2022/08/09 06:29:58;;;;;;;8.13;6.88;;;;;;;16.44;100.00;102688.81;5265616;28;20050;-60
2022/08/09 06:32:29;;;;;;;8.85;7.43;;;;;;;16.47;100.00;102689.13;5265705;28;20032;-60
2022/08/09 06:34:59;;;;;;;7.05;5.82;;;;;;;16.52;100.00;102691.09;5265591;28;20147;-61
2022/08/09 06:37:30;;;;;;;6.63;6.10;;;;;;;16.57;100.00;102688.44;5265783;28;20016;-60
2022/08/09 06:40:00;;;;;;;6.72;6.25;;;;;;;16.66;100.00;102692.44;5265874;28;20028;-61
2022/08/09 06:42:31;;;;;;;7.13;6.60;;;;;;;16.75;100.00;102693.63;5265866;28;20537;-60
2022/08/09 06:45:01;;;;;;;9.32;7.70;;;;;;;16.82;100.00;102690.72;5246961;28;20075;-60
2022/08/09 06:47:32;;;;;;;7.70;6.47;;;;;;;16.88;100.00;102696.00;5265992;28;20032;-60
2022/08/09 06:50:04;;;;;;;6.30;5.78;;;;;;;16.97;100.00;102692.81;5230451;28;20487;-60
2022/08/09 06:52:34;;;;;;;6.88;6.38;;;;;;;17.09;100.00;102690.78;5265606;28;20368;-60
2022/08/09 06:55:06;;;;;;;7.07;6.68;;;;;;;17.18;100.00;102684.63;5265175;28;20019;-60
2022/08/09 06:57:36;;;;;;;6.75;6.35;;;;;;;17.31;100.00;102688.88;5265711;28;20476;-60
2022/08/09 07:00:08;;;;;;;7.18;6.63;;;;;;;17.55;100.00;102695.66;5265713;28;20084;-60
2022/08/09 07:02:39;;;;;;;7.20;6.60;;;;;;;17.71;100.00;102701.28;5265294;28;20032;-62
2022/08/09 07:05:09;;;;;;;6.30;5.70;;;;;;;17.81;100.00;102699.50;5265029;28;20544;-60
2022/08/09 07:07:39;;;;;;;7.85;7.30;;;;;;;18.00;100.00;102691.72;5247037;28;20085;-58
2022/08/09 07:10:11;;;;;;;6.97;6.45;;;;;;;18.14;100.00;102706.59;5265240;28;20416;-60
2022/08/09 07:12:41;;;;;;;8.68;5.45;;;;;;;18.33;100.00;102703.44;5265482;28;20541;-60
2022/08/09 07:15:11;;;;;;;7.10;6.57;;;;;;;18.52;100.00;102710.13;5265151;28;20028;-57
2022/08/09 07:17:42;;;;;;;7.45;6.88;;;;;;;18.69;100.00;102705.34;5265519;28;20058;-58
2022/08/09 07:20:13;;;;;;;6.00;5.20;;;;;;;18.96;100.00;102713.41;5250950;28;20118;-61
2022/08/09 07:22:44;;;;;;;7.47;6.97;;;;;;;19.22;100.00;102706.09;5269426;28;20108;-59
2022/08/09 07:25:14;;;;;;;5.57;5.15;;;;;;;19.41;100.00;102700.94;5269151;28;20437;-61
2022/08/09 07:27:45;;;;;;;6.13;5.63;;;;;;;19.64;100.00;102696.88;5269348;28;20114;-61
2022/08/09 07:30:16;;;;;;;6.20;5.65;;;;;;;19.82;100.00;102688.97;5250859;28;20020;-59
2022/08/09 07:32:46;;;;;;;5.45;5.15;;;;;;;20.08;100.00;102700.75;5268987;28;20431;-59
2022/08/09 07:35:17;;;;;;;6.45;5.53;;;;;;;20.27;100.00;102706.50;5260053;28;20016;-59
2022/08/09 07:37:47;;;;;;;5.53;4.75;;;;;;;20.41;100.00;102704.03;5254511;28;20020;-61
2022/08/09 07:40:18;;;;;;;5.68;5.35;;;;;;;20.62;100.00;102704.81;5247794;28;20036;-61
2022/08/09 07:42:58;;;;;;;10.57;4.93;;;;;;;20.94;100.00;102696.19;5248085;28;20039;-60
2022/08/09 07:45:30;;;;;;;4.63;4.28;;;;;;;21.30;100.00;102694.94;5247107;28;20029;-58
2022/08/09 07:48:01;;;;;;;5.78;4.93;;;;;;;21.49;100.00;102697.84;5229767;28;20372;-60
2022/08/09 07:50:31;;;;;;;5.05;4.65;;;;;;;21.70;100.00;102695.75;5229624;28;20055;-58
2022/08/09 07:53:02;;;;;;;4.80;4.40;;;;;;;21.87;100.00;102696.19;5247695;28;20024;-59
2022/08/09 07:55:33;;;;;;;6.47;5.30;;;;;;;22.00;100.00;102691.94;5247204;28;20024;-61
2022/08/09 07:58:04;;;;;;;6.68;5.90;;;;;;;22.22;100.00;102706.91;5229580;28;20059;-59
2022/08/09 08:00:35;;;;;;;3.72;3.55;;;;;;;22.15;100.00;102691.84;5247452;28;20028;-62
2022/08/09 08:03:06;;;;;;;5.10;4.70;;;;;;;22.39;100.00;102703.69;5229467;28;20070;-61
2022/08/09 08:05:36;;;;;;;4.82;4.63;;;;;;;22.51;100.00;102703.31;5247116;28;20471;-61
2022/08/09 08:08:07;;;;;;;4.78;4.47;;;;;;;22.51;100.00;102698.63;5246859;28;20021;-60
2022/08/09 08:10:37;;;;;;;6.57;3.78;;;;;;;22.56;100.00;102695.78;5247095;28;20044;-60
2022/08/09 08:13:08;;;;;;;3.38;3.13;;;;;;;22.57;100.00;102691.94;5247046;28;20461;-60
2022/08/09 08:15:38;;;;;;;4.18;3.97;;;;;;;22.56;100.00;102711.50;5229111;28;20035;-60
2022/08/09 08:18:09;;;;;;;4.30;3.88;;;;;;;22.41;100.00;102720.75;5246931;28;20099;-61
2022/08/09 08:20:39;;;;;;;4.05;3.70;;;;;;;22.45;100.00;102723.75;5246866;28;20031;-61
2022/08/09 08:23:11;;;;;;;3.30;3.13;;;;;;;22.37;100.00;102718.88;5247208;28;20021;-62
2022/08/09 08:25:41;;;;;;;3.78;3.58;;;;;;;22.63;100.00;102723.00;5246561;28;20038;-62
2022/08/09 08:28:13;;;;;;;3.55;3.35;;;;;;;22.80;100.00;102709.63;5246796;28;20411;-62
2022/08/09 08:30:44;;;;;;;3.38;3.22;;;;;;;22.84;100.00;102701.56;5246714;28;20541;-62
2022/08/09 08:33:14;;;;;;;3.28;3.13;;;;;;;23.05;100.00;102713.16;5247096;28;20024;-60
2022/08/09 08:35:45;;;;;;;6.55;5.05;;;;;;;23.08;100.00;102705.13;5229350;28;20024;-60
2022/08/09 08:38:15;;;;;;;3.60;3.45;;;;;;;23.18;100.00;102706.91;5246993;28;20017;-62
2022/08/09 08:40:46;;;;;;;5.05;4.65;;;;;;;23.33;100.00;102703.97;5246476;28;20111;-61
2022/08/09 08:43:16;;;;;;;6.47;3.28;;;;;;;23.48;100.00;102700.97;5245982;28;20047;-62
2022/08/09 08:45:50;;;;;;;3.53;3.30;;;;;;;23.02;100.00;102647.63;5228029;28;20028;-61
2022/08/09 08:48:21;;;;;;;4.45;3.67;;;;;;;23.48;100.00;102709.22;5246187;28;20039;-62
2022/08/09 08:50:52;;;;;;;3.05;2.95;;;;;;;23.47;100.00;102704.00;5280067;22;20070;-80
2022/08/09 08:53:22;;;;;;;4.60;3.13;;;;;;;23.34;100.00;102704.78;5250989;28;20028;-80
2022/08/09 08:55:53;;;;;;;3.83;3.55;;;;;;;23.31;100.00;102689.66;5261515;28;20028;-80
2022/08/09 08:58:25;;;;;;;5.65;3.47;;;;;;;23.56;100.00;102708.59;5278905;28;20464;-80
2022/08/09 09:00:56;;;;;;;3.10;2.90;;;;;;;23.62;100.00;102706.59;5278892;28;20024;-80
2022/08/09 09:03:32;;;;;;;3.25;3.05;;;;;;;23.79;100.00;102711.53;5260766;28;20039;-80
2022/08/09 09:06:04;;;;;;;2.83;2.70;;;;;;;23.63;100.00;102696.38;5279839;28;20529;-80
2022/08/09 09:08:40;;;;;;;2.92;2.78;;;;;;;23.78;100.00;102718.19;5278951;28;20024;-80
2022/08/09 09:11:10;;;;;;;5.43;3.53;;;;;;;23.72;100.00;102713.88;5279677;28;20363;-80
2022/08/09 09:13:43;;;;;;;3.28;3.08;;;;;;;23.63;100.00;102721.19;5279046;28;20105;-80
2022/08/09 09:16:13;;;;;;;2.38;2.17;;;;;;;23.83;100.00;102707.06;5279974;28;20522;-81
2022/08/09 09:18:44;;;;;;;17.85;4.88;;;;;;;24.10;100.00;102714.63;5261810;28;20019;-81
2022/08/09 09:21:15;;;;;;;3.20;2.67;;;;;;;24.21;100.00;102705.88;5262317;28;20035;-80
2022/08/09 09:23:46;;;;;;;3.20;2.90;;;;;;;24.35;99.75;102714.19;5274605;28;20043;-79
2022/08/09 09:26:22;;;;;;;3.67;2.75;;;;;;;24.51;96.62;102718.31;5276184;28;20138;-79
2022/08/09 09:28:53;;;;;;;4.78;1.90;;;;;;;24.51;96.87;102695.41;5260312;28;20034;-80
2022/08/09 09:31:23;;;;;;;5.40;2.90;;;;;;;24.83;93.72;102714.63;5278371;28;20016;-80
2022/08/09 09:34:13;;;;;;;2.40;2.30;;;;;;;24.67;94.44;102716.06;5259317;28;20031;-80
2022/08/09 09:36:44;;;;;;;2.38;2.13;;;;;;;24.54;92.68;102705.84;5276230;28;20035;-80
2022/08/09 09:39:17;;;;;;;2.72;2.63;;;;;;;24.62;89.28;102702.34;5276268;28;20039;-80
2022/08/09 09:41:48;;;;;;;2.83;2.63;;;;;;;24.62;91.06;102713.41;5276872;28;20039;-81
2022/08/09 09:44:32;;;;;;;3.58;3.28;;;;;;;24.67;92.43;102710.53;5258549;28;20036;-82
2022/08/09 09:47:09;;;;;;;4.10;2.97;;;;;;;24.73;92.61;102705.72;5279196;28;20024;-80
2022/08/09 09:49:40;;;;;;;2.92;2.53;;;;;;;24.76;90.02;102683.84;5280381;28;20031;-81
2022/08/09 09:52:11;;;;;;;4.00;2.60;;;;;;;24.84;90.14;102707.13;5279953;28;20028;-79
2022/08/09 09:54:43;;;;;;;2.33;2.20;;;;;;;24.95;89.57;102688.41;5279736;28;20031;-79
2022/08/09 09:57:22;;;;;;;2.97;2.78;;;;;;;25.31;85.33;102692.06;5279084;28;20044;-81
2022/08/09 09:59:53;;;;;;;2.03;1.92;;;;;;;25.02;85.59;102689.66;5279524;28;20043;-79
2022/08/09 10:02:25;;;;;;;2.15;2.05;;;;;;;25.02;83.53;102699.91;5281446;28;20027;-80
2022/08/09 10:05:07;;;;;;;2.25;2.15;;;;;;;24.95;82.72;102697.56;5255385;28;20020;-80
2022/08/09 10:07:38;;;;;;;1.90;1.80;;;;;;;25.03;83.14;102701.53;5240825;28;20039;-80
2022/08/09 10:10:08;;;;;;;3.10;2.83;;;;;;;25.23;83.60;102701.09;5253299;28;20016;-79
2022/08/09 10:12:39;;;;;;;2.78;2.60;;;;;;;25.15;82.90;102699.03;5223267;28;20592;-78
2022/08/09 10:15:14;;;;;;;1.77;1.73;;;;;;;25.10;84.25;102696.41;5250516;28;20013;-80
2022/08/09 10:17:49;;;;;;;2.30;2.20;;;;;;;25.36;84.56;102689.19;5219587;28;20055;-79
2022/08/09 10:20:27;;;;;;;4.47;2.47;;;;;;;25.54;82.42;102690.94;5237340;28;20232;-80
2022/08/09 10:23:12;;;;;;;3.03;2.80;;;;;;;25.21;82.31;102695.03;5248306;28;20062;-80
2022/08/09 10:25:45;;;;;;;1.75;1.65;;;;;;;25.17;82.30;102680.19;5236568;28;20122;-80
2022/08/09 10:28:16;;;;;;;2.28;2.17;;;;;;;25.44;81.25;102671.81;5250565;28;20025;-81
2022/08/09 10:30:46;;;;;;;2.22;2.13;;;;;;;25.36;82.18;102649.63;5251976;28;20215;-81
2022/08/09 10:33:17;;;;;;;3.95;3.00;;;;;;;25.74;79.80;102688.84;5252665;28;20036;-80
2022/08/09 10:35:48;;;;;;;2.30;2.10;;;;;;;25.69;78.55;102700.06;5250760;28;20405;-81
2022/08/09 10:38:18;;;;;;;2.05;1.73;;;;;;;25.57;78.56;102664.59;5231086;28;20056;-81
2022/08/09 10:40:49;;;;;;;2.20;1.92;;;;;;;25.85;77.76;102695.75;5237785;28;20021;-80
2022/08/09 10:43:19;;;;;;;4.38;2.30;;;;;;;26.09;77.47;102696.25;5256762;28;20040;-80
2022/08/09 10:45:50;;;;;;;3.33;2.03;;;;;;;26.29;78.20;102674.66;5255485;28;20033;-80
2022/08/09 10:48:40;;;;;;;5.13;2.55;;;;;;;26.33;76.73;102676.50;5238253;28;20024;-81
2022/08/09 10:51:35;;;;;;;5.85;2.17;;;;;;;26.32;76.59;102676.81;5219647;28;20045;-81
2022/08/09 10:54:09;;;;;;;5.70;3.00;;;;;;;26.21;76.81;102641.09;5232226;28;20020;-81
2022/08/09 10:56:41;;;;;;;7.57;2.50;;;;;;;26.38;73.94;102670.03;5233873;28;20029;-80
2022/08/09 10:59:21;;;;;;;1.98;1.88;;;;;;;26.12;73.11;102670.69;5215526;28;20024;-82
2022/08/09 11:01:51;;;;;;;2.80;2.60;;;;;;;25.66;74.34;102637.03;5232622;28;20051;-82
2022/08/09 11:04:29;;;;;;;3.90;2.90;;;;;;;25.70;75.50;102662.94;5214608;28;20033;-82
2022/08/09 11:07:02;;;;;;;4.40;3.53;;;;;;;25.83;77.44;102664.81;5232271;28;20053;-82
2022/08/09 11:09:41;;;;;;;4.53;4.18;;;;;;;25.81;76.90;102658.78;5232475;28;20100;-81
2022/08/09 11:12:19;;;;;;;;;;;;;;;25.65;77.40;102665.84;5214899;28;20033;-82
2022/08/09 11:14:55;;;;;;;2.50;2.40;;;;;;;25.87;76.98;102657.53;5211813;28;19952;-82
2022/08/09 11:17:25;;;;;;;2.30;2.15;;;;;;;25.93;76.65;102658.22;5232360;28;20029;-82
2022/08/09 11:20:03;;;;;;;7.85;3.15;;;;;;;25.83;76.17;102662.03;5214190;28;20021;-81
2022/08/09 11:22:39;;;;;;;2.63;2.42;;;;;;;25.97;76.87;102664.75;5232688;28;20029;-84
2022/08/09 11:25:15;;;;;;;2.17;2.10;;;;;;;26.02;72.76;102656.28;5232329;28;20139;-82
2022/08/09 11:27:45;;;;;;;2.95;2.75;;;;;;;26.08;74.59;102657.78;5228605;28;20032;-82
2022/08/09 11:30:22;;;;;;;2.45;2.25;;;;;;;26.32;73.17;102666.56;5211926;28;20024;-82
2022/08/09 11:32:58;;;;;;;3.05;2.88;;;;;;;26.48;73.46;102658.66;5231764;28;20119;-82
2022/08/09 11:35:28;;;;;;;3.25;3.05;;;;;;;26.27;74.46;102663.13;5230650;28;20494;-82
2022/08/09 11:38:14;;;;;;;4.72;4.32;;;;;;;26.22;75.75;102656.56;5231871;28;20036;-82
2022/08/09 11:40:45;;;;;;;3.13;2.92;;;;;;;25.96;75.39;102644.56;5232369;28;20081;-83
2022/08/09 11:43:25;;;;;;;2.30;2.20;;;;;;;26.08;75.72;102644.75;5213913;28;20484;-82
2022/08/09 11:45:58;;;;;;;2.40;2.30;;;;;;;26.42;75.55;102629.47;5214261;28;20029;-82